OIIP

Details ICAO OIIP
Name PAYAM
Region Iran
Timezone Asia/Tehran (UTC+4.5)
Plans Departing 16
Arriving 7
Stats Elevation 4,170 ft / 1,271 m (AMSL)
Location 35.775968° 50.826885°
Runways 1
Magnetic Variation 4.809° E
Sunrise 2018-05-21 01:28:51 UTC / 2018-05-21 05:58:51 Local
Sunset 2018-05-21 15:40:32 UTC / 2018-05-21 20:10:32 Local
Advertisement - Login to hide

Runways

ID Width Length Bearing (true) Bearing (mag) Surface Threshold Offset Overrun Length
12 197 ft / 60 m 12,014 ft / 3,662 m 128.09° 123.28° Asphalt 0 ft / 0 m 492 ft / 150 m
30 197 ft / 60 m 12,014 ft / 3,662 m 308.11° 303.30° Asphalt 0 ft / 0 m 345 ft / 105 m

Map

Weather


0- 5 10 15 20 25 30 35+ Temperature / ° C

Clouds and Precipitation
Forecast for 2018-05-21 06:00 UTC. Updated 2 hours ago

Ground ~20,000 ft ~40,000 ft Winds

METAR

OIIP 210700Z 16004KT 9999 FEW040 SCT200 27/M01 Q1019

TAF

Not found

Frequencies

Tower 121.65 MHz INFO
Tower 118.40 MHz INFO
Warning: Do not use this data for real-world aviation or navigation. No guarantee of current accuracy is given.